createdAt,value
2018-08-10T00:00:06.762Z,54.19
2018-08-10T00:02:34.979Z,53.50
2018-08-10T00:05:02.648Z,53.25
2018-08-10T00:07:30.572Z,53.49
2018-08-10T00:09:58.500Z,53.30
2018-08-10T00:12:26.185Z,53.38
2018-08-10T00:14:54.307Z,52.93
2018-08-10T00:17:21.952Z,53.04
2018-08-10T00:19:49.578Z,53.57
2018-08-10T00:22:17.514Z,53.56
2018-08-10T00:24:45.798Z,52.79
2018-08-10T00:27:13.729Z,53.03
2018-08-10T00:29:41.378Z,52.78
2018-08-10T00:32:09.386Z,52.40
2018-08-10T00:34:37.009Z,52.57
2018-08-10T00:37:05.053Z,51.92
2018-08-10T00:39:32.996Z,51.88
2018-08-10T00:42:00.641Z,51.87
2018-08-10T00:44:28.303Z,51.75
2018-08-10T00:46:56.501Z,51.52
2018-08-10T00:49:24.518Z,51.49
2018-08-10T00:51:52.802Z,51.67
2018-08-10T00:54:20.456Z,51.29
2018-08-10T00:56:48.316Z,51.47
2018-08-10T00:59:15.940Z,51.68
2018-08-10T01:01:44.180Z,51.08
2018-08-10T01:04:12.276Z,51.73
2018-08-10T01:06:40.512Z,51.06
2018-08-10T01:09:10.222Z,51.86
2018-08-10T01:11:37.967Z,51.18
2018-08-10T01:14:06.093Z,51.89
2018-08-10T01:16:33.761Z,51.49
2018-08-10T01:19:01.540Z,52.01
2018-08-10T01:21:29.650Z,51.25
2018-08-10T01:23:57.323Z,51.81
2018-08-10T01:26:25.245Z,51.69
2018-08-10T01:28:52.994Z,51.41
2018-08-10T01:31:21.338Z,51.73
2018-08-10T01:33:49.083Z,51.34
2018-08-10T01:36:16.755Z,51.22
2018-08-10T01:38:44.372Z,51.46
2018-08-10T01:41:12.026Z,51.33
2018-08-10T01:43:39.905Z,51.78
2018-08-10T01:46:07.602Z,51.84
2018-08-10T01:48:35.249Z,51.10
2018-08-10T01:51:02.908Z,50.76
2018-08-10T01:53:30.555Z,51.10
2018-08-10T01:55:58.552Z,51.74
2018-08-10T01:58:26.185Z,51.98
2018-08-10T02:00:54.140Z,51.29
2018-08-10T02:03:21.840Z,51.91
2018-08-10T02:05:49.781Z,51.30
2018-08-10T02:08:17.416Z,51.33
2018-08-10T02:10:45.086Z,51.35
2018-08-10T02:13:12.736Z,51.77
2018-08-10T02:15:40.775Z,51.97
2018-08-10T02:18:08.425Z,51.21
2018-08-10T02:20:36.511Z,51.28
2018-08-10T02:23:04.176Z,51.72
2018-08-10T02:25:31.847Z,51.46
2018-08-10T02:27:59.541Z,51.46
2018-08-10T02:30:27.501Z,52.24
2018-08-10T02:32:55.841Z,51.92
2018-08-10T02:35:24.076Z,52.15
2018-08-10T02:37:52.032Z,52.12
2018-08-10T02:40:21.812Z,52.69
2018-08-10T02:42:50.178Z,52.07
2018-08-10T02:45:18.451Z,52.80
2018-08-10T02:47:46.763Z,52.85
2018-08-10T02:50:15.374Z,52.56
2018-08-10T02:52:43.642Z,52.62
2018-08-10T02:55:11.793Z,52.53
2018-08-10T02:57:40.450Z,52.58
2018-08-10T03:00:10.506Z,52.95
2018-08-10T03:02:38.802Z,52.94
2018-08-10T03:05:07.544Z,53.24
2018-08-10T03:07:35.238Z,53.14
2018-08-10T03:10:03.424Z,52.77
2018-08-10T03:12:31.055Z,52.58
2018-08-10T03:14:58.926Z,52.63
2018-08-10T03:17:26.965Z,52.64
2018-08-10T03:19:55.037Z,52.88
2018-08-10T03:22:22.653Z,52.11
2018-08-10T03:24:51.140Z,52.66
2018-08-10T03:27:19.335Z,52.74
2018-08-10T03:29:47.000Z,52.65
2018-08-10T03:32:14.641Z,52.82
2018-08-10T03:34:42.277Z,52.93
2018-08-10T03:37:09.975Z,52.39
2018-08-10T03:39:37.596Z,52.66
2018-08-10T03:42:05.515Z,53.29
2018-08-10T03:44:33.172Z,53.10
2018-08-10T03:47:00.814Z,52.87
2018-08-10T03:49:28.808Z,53.14
2018-08-10T03:51:56.448Z,52.68
2018-08-10T03:54:24.097Z,52.98
2018-08-10T03:56:51.705Z,53.26
2018-08-10T03:59:19.380Z,52.96
2018-08-10T04:01:47.258Z,53.38
2018-08-10T04:04:14.961Z,54.40
2018-08-10T04:06:42.676Z,54.26
2018-08-10T04:09:11.782Z,54.08
2018-08-10T04:11:40.225Z,55.01
2018-08-10T04:14:07.910Z,54.93
2018-08-10T04:16:35.629Z,54.36
2018-08-10T04:19:03.592Z,55.42
2018-08-10T04:21:31.614Z,55.23
2018-08-10T04:23:59.361Z,54.69
2018-08-10T04:26:27.000Z,55.12
2018-08-10T04:28:54.649Z,54.85
2018-08-10T04:31:22.531Z,54.54
2018-08-10T04:33:50.275Z,53.79
2018-08-10T04:36:17.956Z,53.29
2018-08-10T04:38:45.634Z,53.39
2018-08-10T04:41:13.326Z,52.55
2018-08-10T04:43:41.013Z,51.90
2018-08-10T04:46:08.897Z,52.77
2018-08-10T04:48:36.595Z,52.53
2018-08-10T04:51:32.853Z,52.65
2018-08-10T04:54:00.552Z,53.32
2018-08-10T04:56:28.168Z,52.73
2018-08-10T04:58:56.555Z,53.62
2018-08-10T05:01:24.862Z,54.26
2018-08-10T05:03:52.493Z,54.41
2018-08-10T05:06:20.129Z,54.45
2018-08-10T05:08:48.013Z,55.02
2018-08-10T05:11:15.959Z,55.08
2018-08-10T05:13:43.653Z,54.39
2018-08-10T05:16:11.337Z,54.34
2018-08-10T05:18:38.962Z,55.33
2018-08-10T05:21:06.643Z,54.60
2018-08-10T05:23:34.794Z,55.36
2018-08-10T05:26:02.506Z,54.70
2018-08-10T05:28:30.250Z,54.42
2018-08-10T05:30:57.889Z,55.14
2018-08-10T05:33:25.605Z,55.05
2018-08-10T05:35:53.629Z,54.76
2018-08-10T05:38:21.276Z,55.83
2018-08-10T05:40:49.196Z,55.29
2018-08-10T05:43:17.141Z,54.92
2018-08-10T05:45:45.085Z,55.79
2018-08-10T05:48:12.772Z,54.97
2018-08-10T05:50:40.737Z,55.59
2018-08-10T05:53:08.785Z,55.19
2018-08-10T05:55:36.499Z,55.01
2018-08-10T05:58:04.242Z,55.69
2018-08-10T06:00:31.968Z,55.77
2018-08-10T06:02:59.674Z,55.07
2018-08-10T06:05:27.589Z,55.62
2018-08-10T06:07:55.213Z,55.24
2018-08-10T06:10:23.466Z,55.71
2018-08-10T06:12:51.436Z,55.29
2018-08-10T06:15:19.332Z,55.63
2018-08-10T06:17:47.292Z,56.06
2018-08-10T06:20:14.924Z,55.59
2018-08-10T06:22:42.702Z,55.51
2018-08-10T06:25:10.431Z,56.11
2018-08-10T06:27:38.131Z,55.88
2018-08-10T06:30:08.201Z,55.56
2018-08-10T06:32:35.827Z,55.96
2018-08-10T06:35:03.591Z,55.10
2018-08-10T06:37:31.271Z,55.37
2018-08-10T06:39:59.217Z,54.71
2018-08-10T06:42:26.895Z,55.32
2018-08-10T06:44:55.041Z,54.50
2018-08-10T06:47:23.003Z,54.53
2018-08-10T06:49:50.787Z,55.43
2018-08-10T06:52:18.432Z,55.56
2018-08-10T06:54:46.091Z,55.87
2018-08-10T06:57:13.994Z,55.09
2018-08-10T06:59:42.055Z,55.33
2018-08-10T07:02:09.754Z,55.53
2018-08-10T07:04:37.692Z,55.32
2018-08-10T07:07:06.369Z,55.38
2018-08-10T07:09:34.034Z,55.33
2018-08-10T07:12:01.759Z,54.60
2018-08-10T07:14:30.460Z,54.86
2018-08-10T07:16:58.445Z,54.78
2018-08-10T07:19:26.119Z,54.51
2018-08-10T07:21:53.808Z,53.49
2018-08-10T07:24:21.733Z,53.46
2018-08-10T07:26:49.367Z,53.88
2018-08-10T07:29:17.271Z,52.98
2018-08-10T07:31:45.627Z,53.44
2018-08-10T07:34:13.717Z,53.39
2018-08-10T07:36:41.408Z,53.29
2018-08-10T07:39:10.575Z,52.82
2018-08-10T07:41:38.305Z,52.31
2018-08-10T07:44:06.135Z,51.93
2018-08-10T07:46:33.818Z,52.51
2018-08-10T07:49:01.882Z,52.19
2018-08-10T07:51:29.925Z,51.92
2018-08-10T07:53:57.812Z,50.63
2018-08-10T07:56:25.436Z,50.84
2018-08-10T07:58:53.431Z,50.53
2018-08-10T08:01:21.070Z,50.54
2018-08-10T08:03:49.173Z,51.37
2018-08-10T08:06:16.901Z,51.14
2018-08-10T08:08:44.597Z,50.59
2018-08-10T08:11:12.537Z,49.96
2018-08-10T08:13:40.494Z,49.91
2018-08-10T08:16:08.805Z,50.41
2018-08-10T08:18:36.818Z,50.86
2018-08-10T08:21:10.525Z,51.00
2018-08-10T08:23:38.472Z,51.09
2018-08-10T08:26:06.190Z,51.57
2018-08-10T08:28:34.630Z,52.53
2018-08-10T08:31:03.517Z,52.43
2018-08-10T08:33:31.236Z,52.16
2018-08-10T08:36:00.177Z,52.04
2018-08-10T08:38:39.095Z,51.29
2018-08-10T08:41:08.353Z,51.31
2018-08-10T08:45:54.941Z,51.50
2018-08-10T08:48:22.878Z,51.71
2018-08-10T08:50:52.173Z,52.08
2018-08-10T08:53:19.849Z,51.92
2018-08-10T08:55:53.290Z,51.18
2018-08-10T08:58:21.633Z,50.86
2018-08-10T09:00:49.254Z,50.74
2018-08-10T09:03:29.202Z,51.30
2018-08-10T09:05:57.296Z,50.71
2018-08-10T09:08:25.533Z,50.33
2018-08-10T09:10:54.274Z,50.48
2018-08-10T09:13:22.291Z,50.36
2018-08-10T09:15:49.909Z,50.17
2018-08-10T09:18:17.607Z,48.63
2018-08-10T09:20:45.562Z,48.29
2018-08-10T09:23:13.272Z,47.54
2018-08-10T09:25:41.571Z,47.58
2018-08-10T09:28:09.606Z,47.33
2018-08-10T09:30:37.221Z,46.86
2018-08-10T09:33:05.231Z,46.53
2018-08-10T09:35:32.931Z,46.97
2018-08-10T09:38:00.618Z,46.63
2018-08-10T09:40:28.621Z,47.06
2018-08-10T09:42:56.564Z,47.29
2018-08-10T09:45:24.717Z,46.50
2018-08-10T09:47:52.581Z,47.27
2018-08-10T09:50:20.676Z,47.28
2018-08-10T09:52:56.961Z,46.70
2018-08-10T09:55:40.283Z,47.29
2018-08-10T09:58:11.440Z,47.28
2018-08-10T10:00:45.111Z,47.44
2018-08-10T10:03:16.260Z,46.85
2018-08-10T10:05:44.280Z,47.17
2018-08-10T10:08:12.190Z,46.88
2018-08-10T10:10:39.922Z,46.95
2018-08-10T10:13:07.885Z,46.80
2018-08-10T10:15:35.558Z,46.47
2018-08-10T10:18:03.667Z,46.25
2018-08-10T10:20:31.268Z,46.43
2018-08-10T10:22:58.929Z,46.73
2018-08-10T10:25:26.880Z,46.57
2018-08-10T10:27:54.496Z,46.43
2018-08-10T10:30:22.177Z,46.02
2018-08-10T10:32:49.814Z,45.39
2018-08-10T10:35:17.482Z,45.55
2018-08-10T10:37:45.237Z,46.07
2018-08-10T10:40:12.861Z,45.90
2018-08-10T10:42:40.730Z,45.45
2018-08-10T10:45:11.688Z,45.47
2018-08-10T10:47:39.781Z,45.02
2018-08-10T10:50:08.530Z,44.91
2018-08-10T10:52:37.113Z,45.05
2018-08-10T10:55:05.597Z,44.89
2018-08-10T10:57:33.241Z,44.65
2018-08-10T11:00:01.754Z,44.18
2018-08-10T11:02:29.419Z,43.96
2018-08-10T11:04:57.387Z,44.47
2018-08-10T11:07:25.397Z,44.63
2018-08-10T11:09:53.387Z,43.90
2018-08-10T11:12:21.264Z,44.64
2018-08-10T11:14:48.930Z,44.35
2018-08-10T11:17:16.561Z,43.70
2018-08-10T11:19:44.795Z,44.30
2018-08-10T11:22:12.434Z,44.34
2018-08-10T11:24:40.072Z,43.76
2018-08-10T11:27:07.714Z,43.84
2018-08-10T11:29:35.440Z,44.15
2018-08-10T11:32:03.138Z,44.05
2018-08-10T11:34:30.774Z,43.74
2018-08-10T11:36:58.454Z,43.78
2018-08-10T11:39:26.361Z,44.98
2018-08-10T11:41:54.269Z,44.90
2018-08-10T11:44:22.738Z,44.49
2018-08-10T11:46:51.248Z,44.83
2018-08-10T11:49:18.844Z,44.38
2018-08-10T11:51:46.453Z,43.64
2018-08-10T11:54:14.377Z,44.24
2018-08-10T11:56:42.105Z,43.90
2018-08-10T11:59:09.784Z,43.36
2018-08-10T12:01:37.442Z,43.34
2018-08-10T12:04:05.473Z,43.73
2018-08-10T12:06:33.701Z,43.99
2018-08-10T12:09:02.617Z,44.16
2018-08-10T12:11:30.355Z,43.90
2018-08-10T12:13:58.244Z,44.02
2018-08-10T12:16:25.842Z,43.19
2018-08-10T12:18:53.694Z,43.79
2018-08-10T12:21:21.584Z,43.64
2018-08-10T12:23:49.645Z,43.82
2018-08-10T12:26:17.598Z,42.90
2018-08-10T12:28:45.216Z,42.61
2018-08-10T12:31:13.145Z,43.31
2018-08-10T12:33:40.790Z,42.77
2018-08-10T12:36:09.360Z,42.76
2018-08-10T12:38:38.054Z,42.63
2018-08-10T12:41:05.785Z,42.73
2018-08-10T12:43:33.430Z,42.79
2018-08-10T12:46:01.141Z,42.78
2018-08-10T12:48:29.108Z,41.95
2018-08-10T12:50:57.342Z,42.76
2018-08-10T12:53:25.048Z,42.62
2018-08-10T12:55:53.123Z,41.74
2018-08-10T12:58:20.783Z,42.52
2018-08-10T13:00:48.383Z,42.08
2018-08-10T13:03:16.084Z,42.04
2018-08-10T13:05:43.722Z,41.56
2018-08-10T13:08:11.370Z,41.36
2018-08-10T13:10:39.038Z,41.78
2018-08-10T13:13:08.074Z,40.48
2018-08-10T13:15:35.668Z,39.90
2018-08-10T13:18:03.489Z,40.43
2018-08-10T13:20:31.458Z,40.41
2018-08-10T13:22:59.648Z,40.77
2018-08-10T13:25:27.375Z,39.87
2018-08-10T13:27:55.325Z,39.61
2018-08-10T13:30:23.060Z,40.47
2018-08-10T13:32:51.067Z,39.70
2018-08-10T13:35:18.754Z,40.21
2018-08-10T13:37:46.336Z,40.67
2018-08-10T13:40:14.298Z,40.36
2018-08-10T13:42:42.234Z,40.03
2018-08-10T13:45:11.723Z,40.53
2018-08-10T13:47:39.361Z,40.16
2018-08-10T13:50:08.470Z,40.82
2018-08-10T13:52:36.156Z,40.74
2018-08-10T13:55:04.025Z,41.43
2018-08-10T13:57:31.718Z,40.57
2018-08-10T13:59:59.352Z,41.33
2018-08-10T14:02:27.006Z,41.68
2018-08-10T14:04:54.975Z,41.74
2018-08-10T14:07:22.940Z,41.63
2018-08-10T14:09:50.638Z,42.30
2018-08-10T14:12:18.364Z,42.69
2018-08-10T14:14:46.378Z,42.48
2018-08-10T14:17:14.094Z,42.56
2018-08-10T14:19:42.062Z,43.33
2018-08-10T14:22:09.689Z,43.03
2018-08-10T14:24:37.349Z,43.79
2018-08-10T14:27:05.125Z,43.13
2018-08-10T14:29:32.772Z,43.78
2018-08-10T14:32:01.069Z,43.82
2018-08-10T14:34:29.709Z,43.99
2018-08-10T14:36:57.365Z,43.81
2018-08-10T14:39:25.605Z,44.07
2018-08-10T14:41:53.621Z,43.17
2018-08-10T14:44:21.565Z,43.19
2018-08-10T14:46:49.206Z,41.65
2018-08-10T14:49:17.198Z,42.47
2018-08-10T14:51:44.844Z,41.65
2018-08-10T14:54:12.809Z,38.86
2018-08-10T14:56:40.832Z,36.61
2018-08-10T14:59:08.478Z,37.92
2018-08-10T15:01:36.118Z,39.58
2018-08-10T15:04:03.805Z,39.53
2018-08-10T15:06:31.487Z,39.47
2018-08-10T15:08:59.259Z,38.80
2018-08-10T15:11:26.916Z,38.75
2018-08-10T15:13:54.577Z,39.90
2018-08-10T15:16:22.231Z,40.96
2018-08-10T15:18:50.082Z,42.00
2018-08-10T15:21:17.735Z,42.16
2018-08-10T15:23:45.663Z,43.28
2018-08-10T15:26:13.672Z,43.06
2018-08-10T15:28:41.450Z,43.19
2018-08-10T15:31:09.517Z,43.29
2018-08-10T15:33:37.389Z,43.73
2018-08-10T15:36:05.733Z,43.91
2018-08-10T15:38:33.414Z,43.92
2018-08-10T15:41:01.082Z,43.80
2018-08-10T15:43:28.813Z,43.80
2018-08-10T15:45:56.511Z,44.02
2018-08-10T15:48:24.179Z,44.66
2018-08-10T15:50:51.934Z,44.17
2018-08-10T15:53:19.566Z,44.01
2018-08-10T15:55:47.457Z,44.28
2018-08-10T15:58:15.095Z,44.66
2018-08-10T16:00:43.117Z,44.03
2018-08-10T16:03:11.126Z,44.61
2018-08-10T16:05:40.847Z,43.75
2018-08-10T16:08:08.757Z,44.09
2018-08-10T16:10:36.982Z,44.74
2018-08-10T16:13:05.169Z,44.70
2018-08-10T16:15:33.095Z,45.02
2018-08-10T16:18:01.882Z,44.83
2018-08-10T16:20:30.156Z,43.99
2018-08-10T16:22:58.490Z,44.64
2018-08-10T16:25:26.563Z,44.13
2018-08-10T16:27:55.426Z,43.84
2018-08-10T16:30:25.173Z,44.50
2018-08-10T16:32:53.573Z,44.27
2018-08-10T16:35:22.378Z,44.34
2018-08-10T16:37:50.919Z,44.88
2018-08-10T16:40:20.013Z,45.21
2018-08-10T16:42:48.682Z,44.97
2018-08-10T16:45:16.842Z,44.23
2018-08-10T16:47:45.764Z,44.34
2018-08-10T16:50:15.839Z,45.08
2018-08-10T16:52:44.720Z,44.66
2018-08-10T16:55:15.320Z,44.73
2018-08-10T16:57:44.235Z,44.64
2018-08-10T17:00:14.794Z,45.56
2018-08-10T17:02:43.049Z,44.55
2018-08-10T17:05:11.290Z,44.62
2018-08-10T17:07:40.510Z,44.63
2018-08-10T17:10:08.519Z,45.01
2018-08-10T17:12:37.785Z,45.23
2018-08-10T17:15:08.273Z,44.79
2018-08-10T17:17:35.919Z,44.99
2018-08-10T17:20:04.745Z,44.37
2018-08-10T17:22:32.686Z,43.70
2018-08-10T17:25:00.341Z,44.15
2018-08-10T17:27:28.011Z,43.81
2018-08-10T17:29:55.666Z,43.56
2018-08-10T17:32:23.729Z,43.83
2018-08-10T17:34:51.509Z,43.71
2018-08-10T17:37:19.133Z,44.30
2018-08-10T17:39:47.137Z,44.36
2018-08-10T17:42:14.866Z,44.05
2018-08-10T17:44:42.596Z,43.87
2018-08-10T17:47:10.813Z,44.06
2018-08-10T17:49:38.906Z,43.28
2018-08-10T17:52:06.618Z,42.84
2018-08-10T17:54:34.311Z,43.17
2018-08-10T17:57:02.260Z,42.53
2018-08-10T17:59:30.209Z,42.72
2018-08-10T18:01:57.872Z,41.82
2018-08-10T18:04:25.772Z,42.89
2018-08-10T18:06:53.441Z,41.86
2018-08-10T18:09:21.112Z,42.15
2018-08-10T18:11:49.134Z,42.96
2018-08-10T18:14:16.756Z,42.77
2018-08-10T18:16:44.457Z,43.30
2018-08-10T18:19:12.187Z,44.13
2018-08-10T18:21:39.791Z,44.06
2018-08-10T18:24:07.510Z,44.40
2018-08-10T18:26:35.147Z,44.00
2018-08-10T18:29:02.831Z,44.83
2018-08-10T18:31:30.762Z,44.57
2018-08-10T18:33:58.403Z,44.34
2018-08-10T18:36:26.092Z,45.16
2018-08-10T18:38:54.157Z,44.84
2018-08-10T18:41:21.911Z,44.75
2018-08-10T18:43:49.548Z,45.61
2018-08-10T18:46:17.211Z,45.21
2018-08-10T18:48:45.434Z,45.47
2018-08-10T18:51:13.081Z,45.45
2018-08-10T18:53:40.788Z,44.96
2018-08-10T18:56:08.707Z,45.36
2018-08-10T18:58:36.659Z,45.69
2018-08-10T19:01:04.333Z,45.44
2018-08-10T19:03:32.456Z,46.05
2018-08-10T19:06:00.393Z,46.06
2018-08-10T19:08:28.053Z,45.79
2018-08-10T19:10:55.771Z,45.69
2018-08-10T19:13:23.493Z,45.73
2018-08-10T19:15:51.414Z,45.86
2018-08-10T19:18:19.123Z,45.59
2018-08-10T19:20:46.784Z,46.22
2018-08-10T19:23:15.125Z,46.82
2018-08-10T19:25:43.326Z,46.46
2018-08-10T19:28:11.016Z,46.67
2018-08-10T19:30:38.931Z,46.51
2018-08-10T19:33:07.197Z,46.45
2018-08-10T19:35:34.841Z,47.06
2018-08-10T19:38:02.556Z,46.83
2018-08-10T19:40:30.585Z,46.84
2018-08-10T19:42:58.847Z,46.57
2018-08-10T19:45:26.522Z,47.55
2018-08-10T19:47:54.214Z,47.50
2018-08-10T19:50:22.924Z,47.54
2018-08-10T19:52:50.985Z,46.81
2018-08-10T19:55:18.953Z,47.06
2018-08-10T19:57:46.954Z,47.46
2018-08-10T20:00:16.318Z,47.69
2018-08-10T20:02:46.254Z,47.08
2018-08-10T20:05:14.178Z,47.87
2018-08-10T20:07:41.903Z,47.25
2018-08-10T20:10:10.860Z,47.30
2018-08-10T20:12:38.551Z,47.50
2018-08-10T20:15:11.110Z,48.07
2018-08-10T20:17:38.936Z,47.55
2018-08-10T20:20:07.961Z,48.05
2018-08-10T20:22:35.663Z,47.67
2018-08-10T20:25:03.684Z,48.34
2018-08-10T20:27:31.722Z,47.99
2018-08-10T20:29:59.672Z,48.60
2018-08-10T20:32:27.389Z,48.41
2018-08-10T20:34:55.135Z,48.37
2018-08-10T20:37:22.794Z,47.75
2018-08-10T20:39:50.766Z,48.52
2018-08-10T20:42:18.440Z,48.52
2018-08-10T20:44:46.166Z,48.46
2018-08-10T20:47:13.854Z,48.65
2018-08-10T20:49:41.773Z,48.62
2018-08-10T20:52:09.574Z,48.05
2018-08-10T20:54:37.505Z,48.14
2018-08-10T20:57:05.295Z,48.25
2018-08-10T20:59:33.017Z,48.74
2018-08-10T21:02:00.876Z,48.72
2018-08-10T21:04:29.189Z,48.61
2018-08-10T21:06:57.229Z,48.64
2018-08-10T21:09:25.261Z,47.96
2018-08-10T21:11:53.142Z,48.97
2018-08-10T21:14:20.799Z,48.43
2018-08-10T21:16:48.483Z,49.03
2018-08-10T21:19:16.595Z,48.87
2018-08-10T21:21:44.515Z,48.71
2018-08-10T21:24:12.441Z,48.45
2018-08-10T21:26:40.198Z,49.23
2018-08-10T21:29:08.087Z,48.63
2018-08-10T21:31:36.349Z,49.27
2018-08-10T21:34:04.085Z,48.94
2018-08-10T21:36:32.033Z,48.94
2018-08-10T21:38:59.694Z,49.18
2018-08-10T21:41:27.387Z,49.19
2018-08-10T21:43:55.320Z,48.80
2018-08-10T21:46:22.996Z,49.13
2018-08-10T21:48:51.261Z,49.60
2018-08-10T21:51:19.262Z,49.19
2018-08-10T21:53:46.935Z,48.75
2018-08-10T21:56:14.625Z,48.75
2018-08-10T21:58:42.629Z,49.56
2018-08-10T22:01:10.342Z,49.31
2018-08-10T22:03:38.090Z,48.86
2018-08-10T22:06:06.331Z,49.65
2018-08-10T22:08:34.080Z,48.88
2018-08-10T22:11:01.740Z,49.77
2018-08-10T22:13:36.309Z,49.05
2018-08-10T22:16:09.539Z,49.62
2018-08-10T22:18:42.796Z,48.91
2018-08-10T22:21:10.481Z,49.47
2018-08-10T22:23:38.226Z,49.16
2018-08-10T22:26:06.820Z,49.33
2018-08-10T22:28:34.496Z,49.85
2018-08-10T22:31:02.189Z,49.52
2018-08-10T22:33:30.523Z,49.11
2018-08-10T22:35:58.186Z,49.94
2018-08-10T22:38:26.101Z,49.91
2018-08-10T22:40:54.094Z,49.85
2018-08-10T22:43:21.984Z,49.46
2018-08-10T22:45:49.677Z,50.01
2018-08-10T22:48:17.366Z,49.94
2018-08-10T22:50:45.047Z,49.29
2018-08-10T22:53:12.989Z,49.85
2018-08-10T22:55:40.925Z,49.92
2018-08-10T22:58:08.619Z,50.07
2018-08-10T23:00:36.550Z,49.93
2018-08-10T23:03:04.571Z,49.97
2018-08-10T23:05:32.662Z,49.92
2018-08-10T23:08:01.004Z,49.93
2018-08-10T23:10:28.674Z,50.05
2018-08-10T23:12:56.397Z,50.04
2018-08-10T23:15:24.722Z,49.98
2018-08-10T23:17:52.389Z,49.50
2018-08-10T23:20:20.070Z,49.37
2018-08-10T23:22:48.411Z,50.05
2018-08-10T23:25:16.691Z,49.83
2018-08-10T23:27:44.719Z,49.95
2018-08-10T23:30:13.655Z,50.08
2018-08-10T23:32:41.485Z,50.23
2018-08-10T23:35:09.436Z,49.94
2018-08-10T23:37:37.608Z,49.74
2018-08-10T23:40:08.105Z,49.96
2018-08-10T23:42:35.952Z,49.95
2018-08-10T23:45:04.574Z,49.34
2018-08-10T23:47:32.296Z,49.38
2018-08-10T23:50:00.546Z,50.25
2018-08-10T23:52:28.215Z,49.54
2018-08-10T23:54:56.748Z,49.50
2018-08-10T23:57:24.698Z,50.36
2018-08-10T23:59:52.370Z,49.54
